sensor_id;sensor_type;location;lat;lon;timestamp;P1;durP1;ratioP1;P2;durP2;ratioP2
44606;SDS011;30315;46.072;14.474;2023-03-03T00:00:08;34.33;;;26.05;;
44606;SDS011;30315;46.072;14.474;2023-03-03T00:02:39;40.92;;;26.02;;
44606;SDS011;30315;46.072;14.474;2023-03-03T00:05:06;33.97;;;26.00;;
44606;SDS011;30315;46.072;14.474;2023-03-03T00:07:34;35.75;;;26.70;;
44606;SDS011;30315;46.072;14.474;2023-03-03T00:10:00;34.97;;;27.17;;
44606;SDS011;30315;46.072;14.474;2023-03-03T00:12:28;36.88;;;26.00;;
44606;SDS011;30315;46.072;14.474;2023-03-03T00:14:56;36.72;;;26.08;;
44606;SDS011;30315;46.072;14.474;2023-03-03T00:17:24;32.60;;;25.83;;
44606;SDS011;30315;46.072;14.474;2023-03-03T00:19:55;34.25;;;26.00;;
44606;SDS011;30315;46.072;14.474;2023-03-03T00:22:27;35.00;;;26.38;;
44606;SDS011;30315;46.072;14.474;2023-03-03T00:25:38;36.45;;;26.75;;
44606;SDS011;30315;46.072;14.474;2023-03-03T00:27:51;34.05;;;25.63;;
44606;SDS011;30315;46.072;14.474;2023-03-03T00:30:27;35.88;;;27.15;;
44606;SDS011;30315;46.072;14.474;2023-03-03T00:32:54;35.38;;;27.52;;
44606;SDS011;30315;46.072;14.474;2023-03-03T00:37:57;35.70;;;26.35;;
44606;SDS011;30315;46.072;14.474;2023-03-03T00:40:30;33.15;;;25.45;;
44606;SDS011;30315;46.072;14.474;2023-03-03T00:43:01;35.13;;;26.77;;
44606;SDS011;30315;46.072;14.474;2023-03-03T00:45:48;36.40;;;26.60;;
44606;SDS011;30315;46.072;14.474;2023-03-03T00:48:31;38.38;;;26.73;;
44606;SDS011;30315;46.072;14.474;2023-03-03T00:51:29;33.20;;;25.48;;
44606;SDS011;30315;46.072;14.474;2023-03-03T00:53:56;34.70;;;26.42;;
44606;SDS011;30315;46.072;14.474;2023-03-03T00:56:24;33.50;;;24.70;;
44606;SDS011;30315;46.072;14.474;2023-03-03T00:58:51;36.53;;;26.35;;
44606;SDS011;30315;46.072;14.474;2023-03-03T01:01:20;35.95;;;26.67;;
44606;SDS011;30315;46.072;14.474;2023-03-03T01:03:50;36.38;;;26.63;;
44606;SDS011;30315;46.072;14.474;2023-03-03T01:06:17;34.65;;;26.58;;
44606;SDS011;30315;46.072;14.474;2023-03-03T01:08:44;36.42;;;27.50;;
44606;SDS011;30315;46.072;14.474;2023-03-03T01:11:12;37.88;;;27.17;;
44606;SDS011;30315;46.072;14.474;2023-03-03T01:13:43;35.78;;;28.13;;
44606;SDS011;30315;46.072;14.474;2023-03-03T01:16:13;36.70;;;26.52;;
44606;SDS011;30315;46.072;14.474;2023-03-03T01:18:40;37.08;;;28.85;;
44606;SDS011;30315;46.072;14.474;2023-03-03T01:21:07;36.22;;;27.83;;
44606;SDS011;30315;46.072;14.474;2023-03-03T01:23:37;39.05;;;28.67;;
44606;SDS011;30315;46.072;14.474;2023-03-03T01:26:04;37.92;;;28.00;;
44606;SDS011;30315;46.072;14.474;2023-03-03T01:28:31;36.42;;;27.75;;
44606;SDS011;30315;46.072;14.474;2023-03-03T01:31:00;39.55;;;27.15;;
44606;SDS011;30315;46.072;14.474;2023-03-03T01:33:28;36.05;;;27.35;;
44606;SDS011;30315;46.072;14.474;2023-03-03T01:35:56;39.33;;;28.38;;
44606;SDS011;30315;46.072;14.474;2023-03-03T01:38:24;38.25;;;28.75;;
44606;SDS011;30315;46.072;14.474;2023-03-03T01:40:52;36.30;;;27.73;;
44606;SDS011;30315;46.072;14.474;2023-03-03T01:43:25;37.83;;;27.52;;
44606;SDS011;30315;46.072;14.474;2023-03-03T01:53:47;34.20;;;26.05;;
44606;SDS011;30315;46.072;14.474;2023-03-03T01:56:18;35.55;;;26.50;;
44606;SDS011;30315;46.072;14.474;2023-03-03T01:58:48;34.80;;;26.98;;
44606;SDS011;30315;46.072;14.474;2023-03-03T02:01:54;35.80;;;26.42;;
44606;SDS011;30315;46.072;14.474;2023-03-03T02:04:21;35.95;;;27.42;;
44606;SDS011;30315;46.072;14.474;2023-03-03T02:06:50;34.15;;;26.48;;
44606;SDS011;30315;46.072;14.474;2023-03-03T02:09:26;35.15;;;26.75;;
44606;SDS011;30315;46.072;14.474;2023-03-03T02:12:04;33.70;;;25.70;;
44606;SDS011;30315;46.072;14.474;2023-03-03T02:14:33;33.15;;;25.60;;
44606;SDS011;30315;46.072;14.474;2023-03-03T02:20:10;36.03;;;26.63;;
44606;SDS011;30315;46.072;14.474;2023-03-03T02:22:45;31.88;;;25.40;;
44606;SDS011;30315;46.072;14.474;2023-03-03T02:28:27;36.33;;;27.02;;
44606;SDS011;30315;46.072;14.474;2023-03-03T02:31:02;35.67;;;25.80;;
44606;SDS011;30315;46.072;14.474;2023-03-03T02:33:31;34.22;;;25.38;;
44606;SDS011;30315;46.072;14.474;2023-03-03T02:35:58;37.70;;;27.58;;
44606;SDS011;30315;46.072;14.474;2023-03-03T02:38:29;34.13;;;25.77;;
44606;SDS011;30315;46.072;14.474;2023-03-03T02:44:32;35.35;;;26.30;;
44606;SDS011;30315;46.072;14.474;2023-03-03T02:47:00;34.20;;;25.45;;
44606;SDS011;30315;46.072;14.474;2023-03-03T02:49:30;32.95;;;24.90;;
44606;SDS011;30315;46.072;14.474;2023-03-03T02:52:00;34.60;;;24.55;;
44606;SDS011;30315;46.072;14.474;2023-03-03T02:54:29;34.88;;;26.15;;
44606;SDS011;30315;46.072;14.474;2023-03-03T02:56:58;32.78;;;24.02;;
44606;SDS011;30315;46.072;14.474;2023-03-03T02:59:26;35.17;;;26.10;;
44606;SDS011;30315;46.072;14.474;2023-03-03T03:01:56;32.13;;;25.83;;
44606;SDS011;30315;46.072;14.474;2023-03-03T03:04:23;31.92;;;25.63;;
44606;SDS011;30315;46.072;14.474;2023-03-03T03:06:53;34.88;;;26.67;;
44606;SDS011;30315;46.072;14.474;2023-03-03T03:09:22;35.20;;;26.15;;
44606;SDS011;30315;46.072;14.474;2023-03-03T03:11:52;34.58;;;25.85;;
44606;SDS011;30315;46.072;14.474;2023-03-03T03:14:22;33.08;;;25.20;;
44606;SDS011;30315;46.072;14.474;2023-03-03T03:16:50;34.08;;;26.08;;
44606;SDS011;30315;46.072;14.474;2023-03-03T03:19:17;33.42;;;26.38;;
44606;SDS011;30315;46.072;14.474;2023-03-03T03:21:45;31.15;;;25.00;;
44606;SDS011;30315;46.072;14.474;2023-03-03T03:24:12;34.35;;;25.60;;
44606;SDS011;30315;46.072;14.474;2023-03-03T03:26:44;31.08;;;23.75;;
44606;SDS011;30315;46.072;14.474;2023-03-03T03:29:11;34.83;;;25.58;;
44606;SDS011;30315;46.072;14.474;2023-03-03T03:31:38;33.92;;;25.25;;
44606;SDS011;30315;46.072;14.474;2023-03-03T03:34:06;33.08;;;25.35;;
44606;SDS011;30315;46.072;14.474;2023-03-03T03:36:32;36.30;;;25.80;;
44606;SDS011;30315;46.072;14.474;2023-03-03T03:38:59;36.42;;;24.35;;
44606;SDS011;30315;46.072;14.474;2023-03-03T03:41:29;33.58;;;25.70;;
44606;SDS011;30315;46.072;14.474;2023-03-03T03:43:56;34.28;;;25.55;;
44606;SDS011;30315;46.072;14.474;2023-03-03T03:46:23;35.28;;;26.40;;
44606;SDS011;30315;46.072;14.474;2023-03-03T03:48:50;37.33;;;25.55;;
44606;SDS011;30315;46.072;14.474;2023-03-03T03:51:19;36.03;;;26.55;;
44606;SDS011;30315;46.072;14.474;2023-03-03T03:53:46;38.78;;;26.20;;
44606;SDS011;30315;46.072;14.474;2023-03-03T03:56:13;38.03;;;25.92;;
44606;SDS011;30315;46.072;14.474;2023-03-03T03:58:42;34.45;;;24.98;;
44606;SDS011;30315;46.072;14.474;2023-03-03T04:01:11;35.83;;;25.50;;
44606;SDS011;30315;46.072;14.474;2023-03-03T04:03:43;38.45;;;25.75;;
44606;SDS011;30315;46.072;14.474;2023-03-03T04:06:14;41.58;;;26.30;;
44606;SDS011;30315;46.072;14.474;2023-03-03T04:08:41;35.58;;;25.15;;
44606;SDS011;30315;46.072;14.474;2023-03-03T04:11:09;39.95;;;26.50;;
44606;SDS011;30315;46.072;14.474;2023-03-03T04:13:36;36.20;;;26.30;;
44606;SDS011;30315;46.072;14.474;2023-03-03T04:16:05;38.05;;;26.60;;
44606;SDS011;30315;46.072;14.474;2023-03-03T04:18:33;38.05;;;25.35;;
44606;SDS011;30315;46.072;14.474;2023-03-03T04:21:01;40.72;;;27.67;;
44606;SDS011;30315;46.072;14.474;2023-03-03T04:23:28;37.83;;;27.17;;
44606;SDS011;30315;46.072;14.474;2023-03-03T04:25:55;42.72;;;26.13;;
44606;SDS011;30315;46.072;14.474;2023-03-03T04:28:22;43.80;;;26.27;;
44606;SDS011;30315;46.072;14.474;2023-03-03T04:30:53;38.58;;;26.33;;
44606;SDS011;30315;46.072;14.474;2023-03-03T04:33:21;39.20;;;27.10;;
44606;SDS011;30315;46.072;14.474;2023-03-03T04:35:48;38.25;;;26.88;;
44606;SDS011;30315;46.072;14.474;2023-03-03T04:38:16;44.08;;;27.83;;
44606;SDS011;30315;46.072;14.474;2023-03-03T04:40:45;41.05;;;27.52;;
44606;SDS011;30315;46.072;14.474;2023-03-03T04:43:12;42.05;;;27.75;;
44606;SDS011;30315;46.072;14.474;2023-03-03T04:45:40;44.65;;;28.88;;
44606;SDS011;30315;46.072;14.474;2023-03-03T04:48:08;41.45;;;28.27;;
44606;SDS011;30315;46.072;14.474;2023-03-03T04:50:36;45.38;;;27.98;;
44606;SDS011;30315;46.072;14.474;2023-03-03T04:53:03;43.40;;;28.60;;
44606;SDS011;30315;46.072;14.474;2023-03-03T04:55:31;41.55;;;28.33;;
44606;SDS011;30315;46.072;14.474;2023-03-03T04:57:58;40.95;;;27.90;;
44606;SDS011;30315;46.072;14.474;2023-03-03T05:00:25;45.63;;;28.38;;
44606;SDS011;30315;46.072;14.474;2023-03-03T05:02:52;41.50;;;26.30;;
44606;SDS011;30315;46.072;14.474;2023-03-03T05:05:19;43.03;;;27.17;;
44606;SDS011;30315;46.072;14.474;2023-03-03T05:07:46;40.55;;;26.65;;
44606;SDS011;30315;46.072;14.474;2023-03-03T05:10:13;41.67;;;27.15;;
44606;SDS011;30315;46.072;14.474;2023-03-03T05:12:40;44.20;;;28.40;;
44606;SDS011;30315;46.072;14.474;2023-03-03T05:15:07;47.08;;;29.77;;
44606;SDS011;30315;46.072;14.474;2023-03-03T05:17:34;44.65;;;27.10;;
44606;SDS011;30315;46.072;14.474;2023-03-03T05:20:02;43.65;;;28.15;;
44606;SDS011;30315;46.072;14.474;2023-03-03T05:22:30;40.80;;;27.42;;
44606;SDS011;30315;46.072;14.474;2023-03-03T05:24:57;41.60;;;26.80;;
44606;SDS011;30315;46.072;14.474;2023-03-03T05:27:24;40.50;;;27.25;;
44606;SDS011;30315;46.072;14.474;2023-03-03T05:29:51;41.33;;;27.48;;
44606;SDS011;30315;46.072;14.474;2023-03-03T05:32:18;39.17;;;26.98;;
44606;SDS011;30315;46.072;14.474;2023-03-03T05:34:45;37.03;;;26.58;;
44606;SDS011;30315;46.072;14.474;2023-03-03T05:37:12;38.63;;;26.70;;
44606;SDS011;30315;46.072;14.474;2023-03-03T05:39:40;36.17;;;25.45;;
44606;SDS011;30315;46.072;14.474;2023-03-03T05:42:11;36.28;;;25.85;;
44606;SDS011;30315;46.072;14.474;2023-03-03T05:44:38;36.45;;;24.58;;
44606;SDS011;30315;46.072;14.474;2023-03-03T05:47:05;38.80;;;24.75;;
44606;SDS011;30315;46.072;14.474;2023-03-03T05:49:33;40.85;;;26.67;;
44606;SDS011;30315;46.072;14.474;2023-03-03T05:52:00;43.42;;;26.98;;
44606;SDS011;30315;46.072;14.474;2023-03-03T05:54:27;44.03;;;26.15;;
44606;SDS011;30315;46.072;14.474;2023-03-03T05:56:54;38.40;;;25.38;;
44606;SDS011;30315;46.072;14.474;2023-03-03T05:59:23;41.63;;;28.98;;
44606;SDS011;30315;46.072;14.474;2023-03-03T06:01:50;42.80;;;27.42;;
44606;SDS011;30315;46.072;14.474;2023-03-03T06:04:17;43.25;;;28.90;;
44606;SDS011;30315;46.072;14.474;2023-03-03T06:06:44;44.97;;;30.00;;
44606;SDS011;30315;46.072;14.474;2023-03-03T06:09:11;46.95;;;30.80;;
44606;SDS011;30315;46.072;14.474;2023-03-03T06:11:38;47.55;;;32.72;;
44606;SDS011;30315;46.072;14.474;2023-03-03T06:14:05;52.00;;;33.13;;
44606;SDS011;30315;46.072;14.474;2023-03-03T06:16:31;49.03;;;32.13;;
44606;SDS011;30315;46.072;14.474;2023-03-03T06:18:58;46.83;;;29.92;;
44606;SDS011;30315;46.072;14.474;2023-03-03T06:21:26;45.95;;;29.60;;
44606;SDS011;30315;46.072;14.474;2023-03-03T06:23:53;47.67;;;30.33;;
44606;SDS011;30315;46.072;14.474;2023-03-03T06:26:20;43.97;;;28.60;;
44606;SDS011;30315;46.072;14.474;2023-03-03T06:28:47;42.42;;;27.73;;
44606;SDS011;30315;46.072;14.474;2023-03-03T06:31:15;44.25;;;29.05;;
44606;SDS011;30315;46.072;14.474;2023-03-03T06:33:42;42.38;;;28.00;;
44606;SDS011;30315;46.072;14.474;2023-03-03T06:36:09;43.83;;;27.73;;
44606;SDS011;30315;46.072;14.474;2023-03-03T06:38:36;40.58;;;28.17;;
44606;SDS011;30315;46.072;14.474;2023-03-03T06:41:03;48.40;;;29.58;;
44606;SDS011;30315;46.072;14.474;2023-03-03T06:43:33;46.08;;;29.55;;
44606;SDS011;30315;46.072;14.474;2023-03-03T06:46:01;45.72;;;29.10;;
44606;SDS011;30315;46.072;14.474;2023-03-03T06:48:29;45.75;;;29.98;;
44606;SDS011;30315;46.072;14.474;2023-03-03T06:50:57;48.22;;;29.83;;
44606;SDS011;30315;46.072;14.474;2023-03-03T06:53:27;50.65;;;31.70;;
44606;SDS011;30315;46.072;14.474;2023-03-03T06:55:56;50.80;;;33.30;;
44606;SDS011;30315;46.072;14.474;2023-03-03T06:58:24;44.67;;;32.25;;
44606;SDS011;30315;46.072;14.474;2023-03-03T07:00:58;45.75;;;31.20;;
44606;SDS011;30315;46.072;14.474;2023-03-03T07:03:32;47.58;;;31.33;;
44606;SDS011;30315;46.072;14.474;2023-03-03T07:06:00;51.13;;;32.28;;
44606;SDS011;30315;46.072;14.474;2023-03-03T07:08:31;44.85;;;30.17;;
44606;SDS011;30315;46.072;14.474;2023-03-03T07:11:00;48.13;;;30.27;;
44606;SDS011;30315;46.072;14.474;2023-03-03T07:13:33;47.55;;;32.85;;
44606;SDS011;30315;46.072;14.474;2023-03-03T07:16:08;49.38;;;32.00;;
44606;SDS011;30315;46.072;14.474;2023-03-03T07:23:45;53.10;;;34.33;;
44606;SDS011;30315;46.072;14.474;2023-03-03T07:26:24;55.67;;;34.65;;
44606;SDS011;30315;46.072;14.474;2023-03-03T07:28:59;53.25;;;34.47;;
44606;SDS011;30315;46.072;14.474;2023-03-03T07:31:36;52.72;;;33.97;;
44606;SDS011;30315;46.072;14.474;2023-03-03T07:37:00;51.20;;;33.13;;
44606;SDS011;30315;46.072;14.474;2023-03-03T07:39:38;51.15;;;32.55;;
44606;SDS011;30315;46.072;14.474;2023-03-03T07:42:27;52.33;;;32.42;;
44606;SDS011;30315;46.072;14.474;2023-03-03T07:45:28;53.38;;;33.58;;
44606;SDS011;30315;46.072;14.474;2023-03-03T07:50:49;51.15;;;32.58;;
44606;SDS011;30315;46.072;14.474;2023-03-03T07:53:21;50.40;;;31.42;;
44606;SDS011;30315;46.072;14.474;2023-03-03T07:55:55;52.50;;;32.15;;
44606;SDS011;30315;46.072;14.474;2023-03-03T07:58:43;46.30;;;29.40;;
44606;SDS011;30315;46.072;14.474;2023-03-03T08:04:11;52.83;;;32.65;;
44606;SDS011;30315;46.072;14.474;2023-03-03T08:06:41;46.88;;;30.73;;
44606;SDS011;30315;46.072;14.474;2023-03-03T08:14:18;45.90;;;30.20;;
44606;SDS011;30315;46.072;14.474;2023-03-03T08:16:56;45.47;;;29.17;;
44606;SDS011;30315;46.072;14.474;2023-03-03T08:19:27;49.03;;;31.40;;
44606;SDS011;30315;46.072;14.474;2023-03-03T08:22:08;44.75;;;30.48;;
44606;SDS011;30315;46.072;14.474;2023-03-03T08:24:40;49.20;;;32.97;;
44606;SDS011;30315;46.072;14.474;2023-03-03T08:27:07;48.58;;;31.85;;
44606;SDS011;30315;46.072;14.474;2023-03-03T08:29:33;50.15;;;32.10;;
44606;SDS011;30315;46.072;14.474;2023-03-03T08:32:00;47.83;;;33.42;;
44606;SDS011;30315;46.072;14.474;2023-03-03T08:34:27;50.08;;;33.38;;
44606;SDS011;30315;46.072;14.474;2023-03-03T08:36:54;48.60;;;33.45;;
44606;SDS011;30315;46.072;14.474;2023-03-03T08:39:23;50.17;;;32.72;;
44606;SDS011;30315;46.072;14.474;2023-03-03T08:41:50;46.30;;;32.03;;
44606;SDS011;30315;46.072;14.474;2023-03-03T08:44:17;47.42;;;32.10;;
44606;SDS011;30315;46.072;14.474;2023-03-03T08:46:46;48.70;;;32.80;;
44606;SDS011;30315;46.072;14.474;2023-03-03T08:49:13;50.55;;;32.97;;
44606;SDS011;30315;46.072;14.474;2023-03-03T08:51:40;51.70;;;34.40;;
44606;SDS011;30315;46.072;14.474;2023-03-03T08:54:07;44.90;;;32.00;;
44606;SDS011;30315;46.072;14.474;2023-03-03T08:56:34;47.33;;;31.83;;
44606;SDS011;30315;46.072;14.474;2023-03-03T08:59:01;52.50;;;34.30;;
44606;SDS011;30315;46.072;14.474;2023-03-03T09:01:29;50.25;;;34.13;;
44606;SDS011;30315;46.072;14.474;2023-03-03T09:03:57;48.10;;;33.35;;
44606;SDS011;30315;46.072;14.474;2023-03-03T09:06:24;49.70;;;32.70;;
44606;SDS011;30315;46.072;14.474;2023-03-03T09:08:51;50.47;;;33.45;;
44606;SDS011;30315;46.072;14.474;2023-03-03T09:11:24;51.60;;;33.58;;
44606;SDS011;30315;46.072;14.474;2023-03-03T09:13:56;48.17;;;34.05;;
44606;SDS011;30315;46.072;14.474;2023-03-03T09:16:37;47.83;;;31.98;;
44606;SDS011;30315;46.072;14.474;2023-03-03T09:19:18;47.78;;;32.97;;
44606;SDS011;30315;46.072;14.474;2023-03-03T09:21:53;46.47;;;33.47;;
44606;SDS011;30315;46.072;14.474;2023-03-03T09:24:25;48.88;;;33.17;;
44606;SDS011;30315;46.072;14.474;2023-03-03T09:26:54;46.85;;;30.75;;
44606;SDS011;30315;46.072;14.474;2023-03-03T09:29:25;44.85;;;31.90;;
44606;SDS011;30315;46.072;14.474;2023-03-03T09:31:59;45.67;;;32.47;;
44606;SDS011;30315;46.072;14.474;2023-03-03T09:39:52;42.88;;;28.80;;
44606;SDS011;30315;46.072;14.474;2023-03-03T09:45:12;42.53;;;28.48;;
44606;SDS011;30315;46.072;14.474;2023-03-03T09:50:25;38.63;;;26.77;;
44606;SDS011;30315;46.072;14.474;2023-03-03T09:56:24;33.35;;;24.02;;
44606;SDS011;30315;46.072;14.474;2023-03-03T10:04:43;34.55;;;25.35;;
44606;SDS011;30315;46.072;14.474;2023-03-03T10:23:52;30.80;;;23.40;;
44606;SDS011;30315;46.072;14.474;2023-03-03T10:52:21;36.55;;;26.17;;
44606;SDS011;30315;46.072;14.474;2023-03-03T10:58:02;35.35;;;24.40;;
44606;SDS011;30315;46.072;14.474;2023-03-03T11:00:58;34.72;;;25.30;;
44606;SDS011;30315;46.072;14.474;2023-03-03T11:14:30;30.33;;;22.60;;
44606;SDS011;30315;46.072;14.474;2023-03-03T11:17:10;32.60;;;23.48;;
44606;SDS011;30315;46.072;14.474;2023-03-03T11:19:52;31.42;;;23.45;;
44606;SDS011;30315;46.072;14.474;2023-03-03T11:25:29;33.03;;;25.08;;
44606;SDS011;30315;46.072;14.474;2023-03-03T11:38:58;30.75;;;22.73;;
44606;SDS011;30315;46.072;14.474;2023-03-03T11:41:37;32.30;;;23.63;;
44606;SDS011;30315;46.072;14.474;2023-03-03T11:46:57;27.50;;;21.17;;
44606;SDS011;30315;46.072;14.474;2023-03-03T11:52:21;28.90;;;20.83;;
44606;SDS011;30315;46.072;14.474;2023-03-03T11:55:19;26.10;;;20.13;;
44606;SDS011;30315;46.072;14.474;2023-03-03T12:00:55;27.25;;;20.83;;
44606;SDS011;30315;46.072;14.474;2023-03-03T12:03:30;27.73;;;21.25;;
44606;SDS011;30315;46.072;14.474;2023-03-03T12:08:57;27.17;;;20.42;;
44606;SDS011;30315;46.072;14.474;2023-03-03T12:11:45;29.98;;;22.35;;
44606;SDS011;30315;46.072;14.474;2023-03-03T12:15:04;25.98;;;19.85;;
44606;SDS011;30315;46.072;14.474;2023-03-03T12:25:22;28.30;;;20.98;;
44606;SDS011;30315;46.072;14.474;2023-03-03T12:42:10;28.90;;;20.85;;
44606;SDS011;30315;46.072;14.474;2023-03-03T12:44:55;28.65;;;21.77;;
44606;SDS011;30315;46.072;14.474;2023-03-03T12:47:45;27.20;;;21.23;;
44606;SDS011;30315;46.072;14.474;2023-03-03T12:53:08;28.73;;;22.15;;
44606;SDS011;30315;46.072;14.474;2023-03-03T12:58:33;31.67;;;21.80;;
44606;SDS011;30315;46.072;14.474;2023-03-03T13:07:14;27.77;;;20.95;;
44606;SDS011;30315;46.072;14.474;2023-03-03T13:10:03;27.35;;;21.00;;
44606;SDS011;30315;46.072;14.474;2023-03-03T13:15:27;29.85;;;22.50;;
44606;SDS011;30315;46.072;14.474;2023-03-03T13:23:26;27.55;;;21.15;;
44606;SDS011;30315;46.072;14.474;2023-03-03T13:26:07;27.30;;;21.05;;
44606;SDS011;30315;46.072;14.474;2023-03-03T13:28:46;26.85;;;21.05;;
44606;SDS011;30315;46.072;14.474;2023-03-03T13:31:20;27.02;;;20.83;;
44606;SDS011;30315;46.072;14.474;2023-03-03T13:33:55;26.58;;;20.90;;
44606;SDS011;30315;46.072;14.474;2023-03-03T13:36:33;27.85;;;21.05;;
44606;SDS011;30315;46.072;14.474;2023-03-03T13:39:30;28.67;;;21.45;;
44606;SDS011;30315;46.072;14.474;2023-03-03T13:44:42;27.05;;;21.10;;
44606;SDS011;30315;46.072;14.474;2023-03-03T13:47:20;27.20;;;21.15;;
44606;SDS011;30315;46.072;14.474;2023-03-03T13:53:05;25.23;;;19.42;;
44606;SDS011;30315;46.072;14.474;2023-03-03T13:55:45;26.27;;;19.77;;
44606;SDS011;30315;46.072;14.474;2023-03-03T14:00:54;27.73;;;19.88;;
44606;SDS011;30315;46.072;14.474;2023-03-03T14:06:18;23.83;;;20.05;;
44606;SDS011;30315;46.072;14.474;2023-03-03T14:11:48;25.85;;;19.98;;
44606;SDS011;30315;46.072;14.474;2023-03-03T14:17:03;27.25;;;20.10;;
44606;SDS011;30315;46.072;14.474;2023-03-03T14:20:27;26.05;;;19.98;;
44606;SDS011;30315;46.072;14.474;2023-03-03T14:22:49;26.38;;;19.90;;
44606;SDS011;30315;46.072;14.474;2023-03-03T14:25:20;25.73;;;21.02;;
44606;SDS011;30315;46.072;14.474;2023-03-03T14:33:13;26.20;;;20.92;;
44606;SDS011;30315;46.072;14.474;2023-03-03T14:43:40;23.58;;;18.30;;
44606;SDS011;30315;46.072;14.474;2023-03-03T14:49:03;23.40;;;18.90;;
44606;SDS011;30315;46.072;14.474;2023-03-03T14:51:46;23.52;;;18.80;;
44606;SDS011;30315;46.072;14.474;2023-03-03T14:56:54;26.42;;;18.92;;
44606;SDS011;30315;46.072;14.474;2023-03-03T14:59:25;22.33;;;18.33;;
44606;SDS011;30315;46.072;14.474;2023-03-03T15:01:59;23.52;;;18.30;;
44606;SDS011;30315;46.072;14.474;2023-03-03T15:04:44;24.77;;;18.58;;
44606;SDS011;30315;46.072;14.474;2023-03-03T15:10:03;22.33;;;17.92;;
44606;SDS011;30315;46.072;14.474;2023-03-03T15:17:42;23.25;;;18.58;;
44606;SDS011;30315;46.072;14.474;2023-03-03T15:20:29;23.30;;;18.42;;
44606;SDS011;30315;46.072;14.474;2023-03-03T15:25:41;22.92;;;18.00;;
44606;SDS011;30315;46.072;14.474;2023-03-03T15:40:21;24.23;;;17.67;;
44606;SDS011;30315;46.072;14.474;2023-03-03T15:49:27;27.83;;;18.95;;
44606;SDS011;30315;46.072;14.474;2023-03-03T15:51:51;23.95;;;19.52;;
44606;SDS011;30315;46.072;14.474;2023-03-03T16:03:12;23.73;;;18.38;;
44606;SDS011;30315;46.072;14.474;2023-03-03T16:14:34;20.75;;;16.98;;
44606;SDS011;30315;46.072;14.474;2023-03-03T16:17:51;25.90;;;19.77;;
44606;SDS011;30315;46.072;14.474;2023-03-03T16:20:40;20.92;;;16.90;;
44606;SDS011;30315;46.072;14.474;2023-03-03T16:29:18;26.30;;;19.23;;
44606;SDS011;30315;46.072;14.474;2023-03-03T16:32:31;24.27;;;18.55;;
44606;SDS011;30315;46.072;14.474;2023-03-03T16:34:54;26.65;;;18.73;;
44606;SDS011;30315;46.072;14.474;2023-03-03T16:38:21;25.08;;;19.33;;
44606;SDS011;30315;46.072;14.474;2023-03-03T16:40:53;24.30;;;18.75;;
44606;SDS011;30315;46.072;14.474;2023-03-03T16:44:10;25.23;;;18.58;;
44606;SDS011;30315;46.072;14.474;2023-03-03T16:46:37;24.00;;;18.05;;
44606;SDS011;30315;46.072;14.474;2023-03-03T16:54:30;24.73;;;19.50;;
44606;SDS011;30315;46.072;14.474;2023-03-03T16:57:06;23.08;;;18.52;;
44606;SDS011;30315;46.072;14.474;2023-03-03T17:02:39;29.27;;;19.95;;
44606;SDS011;30315;46.072;14.474;2023-03-03T17:05:32;24.45;;;18.55;;
44606;SDS011;30315;46.072;14.474;2023-03-03T17:08:26;25.27;;;19.05;;
44606;SDS011;30315;46.072;14.474;2023-03-03T17:14:20;29.80;;;21.95;;
44606;SDS011;30315;46.072;14.474;2023-03-03T17:25:14;25.98;;;19.70;;
44606;SDS011;30315;46.072;14.474;2023-03-03T17:44:40;27.05;;;20.70;;
44606;SDS011;30315;46.072;14.474;2023-03-03T17:47:12;32.72;;;23.45;;
44606;SDS011;30315;46.072;14.474;2023-03-03T18:03:44;41.60;;;27.65;;
44606;SDS011;30315;46.072;14.474;2023-03-03T18:12:21;46.35;;;31.75;;
44606;SDS011;30315;46.072;14.474;2023-03-03T18:15:28;45.25;;;29.90;;
44606;SDS011;30315;46.072;14.474;2023-03-03T18:24:27;57.58;;;37.95;;
44606;SDS011;30315;46.072;14.474;2023-03-03T18:40:55;45.33;;;31.13;;
44606;SDS011;30315;46.072;14.474;2023-03-03T18:46:10;40.67;;;28.38;;
44606;SDS011;30315;46.072;14.474;2023-03-03T18:49:08;43.00;;;28.50;;
44606;SDS011;30315;46.072;14.474;2023-03-03T19:04:46;59.00;;;38.17;;
44606;SDS011;30315;46.072;14.474;2023-03-03T19:07:27;54.00;;;35.58;;
44606;SDS011;30315;46.072;14.474;2023-03-03T19:12:46;56.63;;;36.72;;
44606;SDS011;30315;46.072;14.474;2023-03-03T19:18:02;57.28;;;36.95;;
44606;SDS011;30315;46.072;14.474;2023-03-03T19:20:40;54.15;;;35.95;;
44606;SDS011;30315;46.072;14.474;2023-03-03T19:23:11;54.67;;;38.08;;
44606;SDS011;30315;46.072;14.474;2023-03-03T19:25:41;54.92;;;36.55;;
44606;SDS011;30315;46.072;14.474;2023-03-03T19:30:41;54.40;;;37.20;;
44606;SDS011;30315;46.072;14.474;2023-03-03T19:41:50;49.10;;;32.88;;
44606;SDS011;30315;46.072;14.474;2023-03-03T20:04:34;54.53;;;35.40;;
44606;SDS011;30315;46.072;14.474;2023-03-03T20:07:26;44.58;;;32.53;;
44606;SDS011;30315;46.072;14.474;2023-03-03T20:12:45;48.25;;;33.85;;
44606;SDS011;30315;46.072;14.474;2023-03-03T20:15:43;48.05;;;33.92;;
44606;SDS011;30315;46.072;14.474;2023-03-03T20:21:37;52.03;;;35.80;;
44606;SDS011;30315;46.072;14.474;2023-03-03T20:24:25;51.63;;;33.58;;
44606;SDS011;30315;46.072;14.474;2023-03-03T20:40:52;52.65;;;33.05;;
44606;SDS011;30315;46.072;14.474;2023-03-03T21:00:31;39.92;;;28.60;;
44606;SDS011;30315;46.072;14.474;2023-03-03T21:03:09;41.50;;;28.45;;
44606;SDS011;30315;46.072;14.474;2023-03-03T21:05:57;40.28;;;29.27;;
44606;SDS011;30315;46.072;14.474;2023-03-03T21:08:41;38.60;;;27.23;;
44606;SDS011;30315;46.072;14.474;2023-03-03T21:11:11;43.70;;;28.92;;
44606;SDS011;30315;46.072;14.474;2023-03-03T21:13:45;41.25;;;29.08;;
44606;SDS011;30315;46.072;14.474;2023-03-03T21:21:22;40.50;;;26.83;;
44606;SDS011;30315;46.072;14.474;2023-03-03T21:23:49;38.40;;;27.88;;
44606;SDS011;30315;46.072;14.474;2023-03-03T21:34:31;39.05;;;28.30;;
44606;SDS011;30315;46.072;14.474;2023-03-03T21:37:00;41.33;;;28.73;;
44606;SDS011;30315;46.072;14.474;2023-03-03T21:39:33;39.78;;;28.08;;
44606;SDS011;30315;46.072;14.474;2023-03-03T21:44:41;43.72;;;30.02;;
44606;SDS011;30315;46.072;14.474;2023-03-03T21:47:18;43.10;;;29.42;;
44606;SDS011;30315;46.072;14.474;2023-03-03T21:49:47;45.65;;;30.83;;
44606;SDS011;30315;46.072;14.474;2023-03-03T21:52:16;45.97;;;31.85;;
44606;SDS011;30315;46.072;14.474;2023-03-03T21:54:44;53.97;;;34.72;;
44606;SDS011;30315;46.072;14.474;2023-03-03T21:57:12;50.40;;;34.28;;
44606;SDS011;30315;46.072;14.474;2023-03-03T21:59:39;48.88;;;34.28;;
44606;SDS011;30315;46.072;14.474;2023-03-03T22:02:07;50.33;;;34.08;;
44606;SDS011;30315;46.072;14.474;2023-03-03T22:04:34;46.90;;;30.83;;
44606;SDS011;30315;46.072;14.474;2023-03-03T22:07:04;45.58;;;31.42;;
44606;SDS011;30315;46.072;14.474;2023-03-03T22:09:31;43.83;;;30.30;;
44606;SDS011;30315;46.072;14.474;2023-03-03T22:11:58;42.75;;;28.38;;
44606;SDS011;30315;46.072;14.474;2023-03-03T22:14:24;44.85;;;31.08;;